Time;durP1;ratioP1;P1;durP2;ratioP2;P2;SDS_P1;SDS_P2;PMS_P1;PMS_P2;Temp;Humidity;BMP_temperature;BMP_pressure;BME280_temperature;BME280_humidity;BME280_pressure;Samples;Min_cycle;Max_cycle;Signal;HPM_P1;HPM_P2
2023/02/25 00:22:39;;;;;;;;;;;;;;;6.04;70.05;98759.06;1087619;54;19939;-80
2023/02/25 00:23:45;;;;;;;;;;;;;;;5.98;69.72;98759.59;1088228;54;19939;-82
2023/02/25 00:25:02;;;;;;;;;;;;;;;6.02;69.83;98758.34;1088371;46;19927;-82
2023/02/25 00:26:05;;;;;;;;;;;;;;;6.01;69.88;98756.69;1091850;46;19967;-81
2023/02/25 00:28:10;;;;;;;;;;;;;;;6.09;69.50;98764.75;1088320;54;21426;-84
2023/02/25 00:29:11;;;;;;;;;;;;;;;6.01;69.33;98755.84;1091254;46;19938;-84
2023/02/25 00:30:15;;;;;;;;;;;;;;;6.04;69.69;98766.16;1090472;39;20179;-84
2023/02/25 00:31:17;;;;;;;;;;;;;;;6.05;69.96;98758.03;1088452;54;19930;-83
2023/02/25 00:32:21;;;;;;;;;;;;;;;6.02;69.84;98768.97;1088537;54;19938;-83
2023/02/25 00:33:23;;;;;;;;;;;;;;;5.94;70.28;98756.41;1088730;46;19949;-84
2023/02/25 00:34:27;;;;;;;;;;;;;;;5.98;69.86;98764.06;1089755;46;19934;-83
2023/02/25 00:35:28;;;;;;;;;;;;;;;5.96;69.44;98763.38;1090703;46;19931;-85
2023/02/25 00:36:32;;;;;;;;;;;;;;;5.88;69.82;98761.44;1095321;39;20184;-83
2023/02/25 00:37:35;;;;;;;;;;;;;;;5.90;69.73;98759.50;1089760;39;20102;-83
2023/02/25 00:38:39;;;;;;;;;;;;;;;6.04;69.63;98758.19;1088200;54;19953;-84
2023/02/25 00:39:43;;;;;;;;;;;;;;;6.08;69.23;98759.59;1089895;46;19946;-85
2023/02/25 00:40:47;;;;;;;;;;;;;;;5.97;68.98;98760.56;1090336;46;19938;-82
2023/02/25 00:41:48;;;;;;;;;;;;;;;5.99;69.44;98758.63;1088159;54;19954;-83
2023/02/25 00:42:51;;;;;;;;;;;;;;;6.09;69.26;98755.97;1088200;54;19923;-85
2023/02/25 00:43:54;;;;;;;;;;;;;;;6.04;69.21;98760.84;1088221;54;20672;-84
2023/02/25 00:44:58;;;;;;;;;;;;;;;6.13;68.95;98765.28;1088148;54;19950;-83
2023/02/25 00:45:59;;;;;;;;;;;;;;;5.98;68.47;98762.25;1088197;54;19927;-83
2023/02/25 00:47:02;;;;;;;;;;;;;;;5.97;67.90;98760.56;1091018;46;19970;-83
2023/02/25 00:48:04;;;;;;;;;;;;;;;5.92;67.70;98753.06;1088167;54;19966;-82
2023/02/25 00:49:07;;;;;;;;;;;;;;;5.91;67.14;98755.84;1088153;54;19935;-81
2023/02/25 00:50:09;;;;;;;;;;;;;;;5.88;66.97;98753.50;1088117;54;19942;-82
2023/02/25 00:51:14;;;;;;;;;;;;;;;5.90;67.00;98765.63;1088175;54;19931;-80
2023/02/25 00:52:15;;;;;;;;;;;;;;;5.82;66.64;98767.34;1088911;47;19934;-82
2023/02/25 00:53:21;;;;;;;;;;;;;;;5.83;66.69;98771.66;1088156;54;19965;-82
2023/02/25 00:54:22;;;;;;;;;;;;;;;5.80;66.69;98764.84;1088188;54;19965;-83
2023/02/25 00:55:32;;;;;;;;;;;;;;;5.88;66.37;98774.72;1088154;54;19949;-83
2023/02/25 00:56:36;;;;;;;;;;;;;;;5.85;66.38;98769.72;1088135;54;20683;-82
2023/02/25 00:57:37;;;;;;;;;;;;;;;5.84;66.58;98768.03;1088107;54;19966;-83
2023/02/25 00:58:40;;;;;;;;;;;;;;;5.82;66.46;98783.25;1088090;54;19942;-82
2023/02/25 00:59:41;;;;;;;;;;;;;;;5.81;66.62;98782.41;1088193;54;19935;-86
2023/02/25 01:00:45;;;;;;;;;;;;;;;5.88;66.70;98772.06;1088168;54;19943;-83
2023/02/25 01:01:46;;;;;;;;;;;;;;;5.96;66.21;98774.00;1088600;46;19939;-82
2023/02/25 01:02:50;;;;;;;;;;;;;;;5.93;66.77;98775.13;1088507;47;19946;-82
2023/02/25 01:03:51;;;;;;;;;;;;;;;5.92;66.08;98773.44;1088087;54;19946;-80
2023/02/25 01:04:55;;;;;;;;;;;;;;;5.90;66.40;98778.88;1088221;54;19938;-83
2023/02/25 01:05:56;;;;;;;;;;;;;;;5.88;66.13;98774.72;1088218;54;19949;-84
2023/02/25 01:07:00;;;;;;;;;;;;;;;5.88;66.08;98772.91;1088161;54;21033;-84
2023/02/25 01:08:01;;;;;;;;;;;;;;;5.94;65.96;98771.50;1088200;54;19935;-82
2023/02/25 01:09:12;;;;;;;;;;;;;;;5.95;65.65;98770.50;1088617;46;19945;-86
2023/02/25 01:10:13;;;;;;;;;;;;;;;6.04;65.58;98774.97;1088201;54;19943;-87
2023/02/25 01:11:19;;;;;;;;;;;;;;;5.98;65.68;98772.84;1088174;54;19942;-85
2023/02/25 01:12:21;;;;;;;;;;;;;;;6.09;65.81;98780.66;1088943;47;19943;-82
2023/02/25 01:13:24;;;;;;;;;;;;;;;5.92;65.52;98781.41;1088975;46;19946;-84
2023/02/25 01:14:25;;;;;;;;;;;;;;;6.03;65.66;98781.25;1088109;54;19998;-84
2023/02/25 01:15:31;;;;;;;;;;;;;;;5.99;65.74;98779.00;1088102;54;19943;-85
2023/02/25 01:16:34;;;;;;;;;;;;;;;6.10;65.67;98781.47;1088190;54;19948;-82
2023/02/25 01:17:38;;;;;;;;;;;;;;;6.10;65.07;98778.81;1088070;54;19946;-82
2023/02/25 01:18:39;;;;;;;;;;;;;;;6.17;65.09;98781.72;1088124;54;19938;-81
2023/02/25 01:19:43;;;;;;;;;;;;;;;6.12;64.70;98778.69;1088455;46;19943;-84
2023/02/25 01:20:44;;;;;;;;;;;;;;;6.13;65.01;98775.06;1088103;54;19938;-81
2023/02/25 01:21:48;;;;;;;;;;;;;;;6.09;65.07;98775.34;1088061;54;19949;-83
2023/02/25 01:22:50;;;;;;;;;;;;;;;6.09;64.76;98785.97;1088090;54;19958;-81
2023/02/25 01:23:58;;;;;;;;;;;;;;;6.11;65.16;98777.84;1088098;54;19958;-81
2023/02/25 01:25:12;;;;;;;;;;;;;;;6.13;64.97;98780.38;1088079;54;19994;-83
2023/02/25 01:26:15;;;;;;;;;;;;;;;6.07;65.04;98781.81;1088122;54;19943;-80
2023/02/25 01:27:16;;;;;;;;;;;;;;;5.90;65.08;98780.72;1088006;54;19938;-83
2023/02/25 01:28:20;;;;;;;;;;;;;;;5.98;65.15;98777.34;1088136;54;19942;-83
2023/02/25 01:29:23;;;;;;;;;;;;;;;6.05;64.90;98779.28;1090900;39;20509;-81
2023/02/25 01:30:27;;;;;;;;;;;;;;;5.98;64.95;98777.34;1088090;54;19962;-81
2023/02/25 01:31:28;;;;;;;;;;;;;;;5.97;64.63;98779.13;1088083;54;19942;-82
2023/02/25 01:32:31;;;;;;;;;;;;;;;6.03;64.90;98778.59;1088061;54;19949;-81
2023/02/25 01:33:37;;;;;;;;;;;;;;;5.97;64.94;98776.47;1088060;54;19957;-80
2023/02/25 01:34:41;;;;;;;;;;;;;;;5.90;64.78;98778.06;1088089;54;20614;-83
2023/02/25 01:35:42;;;;;;;;;;;;;;;6.00;64.77;98780.72;1088080;54;19939;-81
2023/02/25 01:36:46;;;;;;;;;;;;;;;5.93;64.77;98783.91;1088051;54;19946;-82
2023/02/25 01:37:48;;;;;;;;;;;;;;;5.90;64.67;98784.19;1087989;54;20633;-85
2023/02/25 01:38:52;;;;;;;;;;;;;;;5.82;64.03;98788.56;1088082;54;19949;-85
2023/02/25 01:39:53;;;;;;;;;;;;;;;5.83;64.21;98783.09;1088172;54;19950;-85
2023/02/25 01:41:02;;;;;;;;;;;;;;;5.89;64.25;98793.16;1088146;54;19930;-83
2023/02/25 01:42:04;;;;;;;;;;;;;;;5.94;64.26;98788.22;1088376;47;19950;-83
2023/02/25 01:43:08;;;;;;;;;;;;;;;5.90;64.22;98792.16;1088145;54;19994;-83
2023/02/25 01:44:11;;;;;;;;;;;;;;;6.02;64.15;98794.66;1088382;54;19945;-83
2023/02/25 01:45:38;;;;;;;;;;;;;;;5.91;64.26;98795.66;1091263;39;20603;-85
2023/02/25 01:46:40;;;;;;;;;;;;;;;5.78;64.66;98803.94;1090276;46;20014;-85
2023/02/25 01:47:46;;;;;;;;;;;;;;;5.80;64.52;98804.63;1088395;54;19939;-85
2023/02/25 01:48:47;;;;;;;;;;;;;;;5.89;64.63;98797.59;1088403;54;20226;-85
2023/02/25 01:49:51;;;;;;;;;;;;;;;5.73;64.88;98807.03;1088466;54;19943;-84
2023/02/25 01:50:54;;;;;;;;;;;;;;;5.69;64.92;98805.63;1088479;54;19998;-86
2023/02/25 01:51:59;;;;;;;;;;;;;;;5.84;64.79;98790.09;1088444;54;19945;-86
2023/02/25 01:53:02;;;;;;;;;;;;;;;5.75;64.64;98796.25;1088486;54;19934;-85
2023/02/25 01:54:06;;;;;;;;;;;;;;;5.82;65.04;98796.53;1088408;54;19942;-84
2023/02/25 01:55:09;;;;;;;;;;;;;;;5.89;64.71;98800.25;1088409;54;19950;-83
2023/02/25 01:56:19;;;;;;;;;;;;;;;5.77;64.97;98803.09;1088398;54;19949;-85
2023/02/25 01:57:21;;;;;;;;;;;;;;;5.87;65.04;98802.22;1088370;54;19946;-83
2023/02/25 01:58:25;;;;;;;;;;;;;;;5.85;64.96;98796.25;1088450;54;19989;-85
2023/02/25 01:59:27;;;;;;;;;;;;;;;5.97;64.87;98796.88;1088455;54;19942;-85
2023/02/25 02:00:35;;;;;;;;;;;;;;;6.00;64.34;98796.63;1091894;39;20450;-86
2023/02/25 02:01:38;;;;;;;;;;;;;;;6.05;64.67;98799.69;1088544;54;19966;-86
2023/02/25 02:02:43;;;;;;;;;;;;;;;6.02;64.65;98795.50;1088418;46;20033;-83
2023/02/25 02:03:45;;;;;;;;;;;;;;;5.94;64.86;98790.06;1088456;54;19942;-83
2023/02/25 02:04:50;;;;;;;;;;;;;;;5.94;64.57;98792.72;1096739;39;20787;-83
2023/02/25 02:05:58;;;;;;;;;;;;;;;5.99;64.60;98787.81;1088406;54;19934;-84
2023/02/25 02:07:03;;;;;;;;;;;;;;;5.90;64.70;98797.44;1088495;46;19931;-84
2023/02/25 02:08:04;;;;;;;;;;;;;;;5.75;65.26;98793.59;1088901;46;19994;-86
2023/02/25 02:09:10;;;;;;;;;;;;;;;5.69;65.10;98787.06;1088475;54;19927;-84
2023/02/25 02:10:12;;;;;;;;;;;;;;;5.61;65.23;98798.41;1088457;54;19931;-85
2023/02/25 02:11:18;;;;;;;;;;;;;;;5.54;65.46;98796.47;1093478;39;20553;-84
2023/02/25 02:12:20;;;;;;;;;;;;;;;5.52;65.39;98795.75;1088763;54;19934;-87
2023/02/25 02:13:57;;;;;;;;;;;;;;;5.56;65.55;98794.50;1088533;54;19951;-86
2023/02/25 02:14:59;;;;;;;;;;;;;;;5.56;65.33;98779.44;1088312;54;19950;-85
2023/02/25 02:19:15;;;;;;;;;;;;;;;5.39;66.11;98788.13;1087961;54;20038;-82
2023/02/25 02:20:19;;;;;;;;;;;;;;;5.31;65.87;98788.81;1088233;54;19965;-81
2023/02/25 02:21:33;;;;;;;;;;;;;;;5.22;66.20;98792.31;1088241;54;19957;-83
2023/02/25 02:22:38;;;;;;;;;;;;;;;5.19;66.15;98803.22;1088184;54;19942;-81
2023/02/25 02:23:54;;;;;;;;;;;;;;;5.29;66.15;98791.63;1089285;46;19942;-81
2023/02/25 02:25:10;;;;;;;;;;;;;;;5.23;66.03;98791.34;1090003;39;20647;-82
2023/02/25 02:26:32;;;;;;;;;;;;;;;5.11;66.05;98801.25;1090553;39;20564;-82
2023/02/25 02:27:47;;;;;;;;;;;;;;;4.93;66.70;98803.75;1088237;54;19964;-82
2023/02/25 02:29:03;;;;;;;;;;;;;;;4.93;66.83;98799.31;1087986;54;19958;-82
2023/02/25 02:30:25;;;;;;;;;;;;;;;4.89;66.65;98802.38;1090403;39;20140;-82
2023/02/25 02:31:34;;;;;;;;;;;;;;;4.86;66.88;98811.44;1087881;54;19951;-81
2023/02/25 02:32:39;;;;;;;;;;;;;;;4.83;67.02;98809.88;1088046;47;19943;-80
2023/02/25 02:33:46;;;;;;;;;;;;;;;4.83;67.06;98817.00;1087829;54;20243;-81
2023/02/25 02:34:52;;;;;;;;;;;;;;;4.83;67.06;98812.53;1087950;54;19943;-81
2023/02/25 02:36:00;;;;;;;;;;;;;;;4.89;66.74;98810.31;1087937;54;19943;-80
2023/02/25 02:37:05;;;;;;;;;;;;;;;5.04;66.58;98811.56;1088536;39;20538;-81
2023/02/25 02:38:13;;;;;;;;;;;;;;;5.09;66.41;98814.66;1087910;54;19927;-81
2023/02/25 02:39:19;;;;;;;;;;;;;;;5.01;66.29;98814.50;1087922;54;19938;-80
2023/02/25 02:40:30;;;;;;;;;;;;;;;4.86;66.72;98822.03;1090512;39;20573;-82
2023/02/25 02:41:33;;;;;;;;;;;;;;;4.98;66.48;98825.38;1088072;54;19943;-80
2023/02/25 02:42:42;;;;;;;;;;;;;;;5.03;66.35;98825.78;1088077;54;19927;-81
2023/02/25 02:43:44;;;;;;;;;;;;;;;4.92;66.31;98833.88;1088275;54;19954;-81
2023/02/25 02:44:53;;;;;;;;;;;;;;;4.96;66.51;98832.63;1088306;54;19994;-80
2023/02/25 02:45:57;;;;;;;;;;;;;;;4.88;66.80;98832.47;1092056;39;20559;-81
2023/02/25 02:47:05;;;;;;;;;;;;;;;4.89;66.55;98834.16;1088232;54;19942;-81
2023/02/25 02:48:09;;;;;;;;;;;;;;;4.94;66.46;98829.28;1088308;54;19926;-81
2023/02/25 02:49:16;;;;;;;;;;;;;;;4.91;66.22;98832.22;1088307;54;19989;-80
2023/02/25 02:50:22;;;;;;;;;;;;;;;4.83;66.38;98831.06;1088203;54;19943;-80
2023/02/25 02:51:28;;;;;;;;;;;;;;;4.78;66.27;98845.69;1088369;54;19946;-81
2023/02/25 02:52:30;;;;;;;;;;;;;;;4.85;66.30;98846.84;1088308;54;19938;-80
2023/02/25 02:53:38;;;;;;;;;;;;;;;4.74;66.58;98842.50;1088345;54;19950;-81
2023/02/25 02:54:44;;;;;;;;;;;;;;;4.76;66.49;98851.13;1091085;39;20675;-81
2023/02/25 02:55:57;;;;;;;;;;;;;;;4.87;66.03;98844.03;1088152;54;19983;-79
2023/02/25 02:56:59;;;;;;;;;;;;;;;4.80;66.48;98852.56;1088135;54;19939;-80
2023/02/25 02:58:06;;;;;;;;;;;;;;;4.90;66.37;98851.72;1088347;54;19959;-80
2023/02/25 02:59:09;;;;;;;;;;;;;;;4.91;66.14;98848.09;1088660;54;19927;-79
2023/02/25 03:00:16;;;;;;;;;;;;;;;4.82;66.40;98849.75;1092579;46;19939;-80
2023/02/25 03:01:20;;;;;;;;;;;;;;;4.87;66.33;98852.81;1088440;54;19949;-80
2023/02/25 03:02:30;;;;;;;;;;;;;;;4.84;66.43;98853.94;1088416;54;19926;-80
2023/02/25 03:03:37;;;;;;;;;;;;;;;4.81;66.69;98851.59;1089502;46;19947;-80
2023/02/25 03:04:43;;;;;;;;;;;;;;;4.77;66.75;98858.09;1093414;46;19939;-80
2023/02/25 03:05:48;;;;;;;;;;;;;;;4.73;66.72;98862.00;1088251;54;19943;-80
2023/02/25 03:06:53;;;;;;;;;;;;;;;4.76;66.89;98861.72;1088265;54;19943;-79
2023/02/25 03:07:59;;;;;;;;;;;;;;;4.86;66.77;98860.91;1088172;54;19950;-80
2023/02/25 03:09:05;;;;;;;;;;;;;;;4.81;66.74;98864.81;1088258;54;19982;-79
2023/02/25 03:10:11;;;;;;;;;;;;;;;4.90;66.66;98852.56;1088264;54;19950;-80
2023/02/25 03:11:15;;;;;;;;;;;;;;;4.88;66.81;98865.09;1090217;39;20505;-79
2023/02/25 03:12:16;;;;;;;;;;;;;;;4.86;66.54;98858.25;1088228;54;19927;-80
2023/02/25 03:13:20;;;;;;;;;;;;;;;4.93;66.59;98857.59;1088164;54;19942;-80
2023/02/25 03:14:21;;;;;;;;;;;;;;;4.96;66.46;98856.47;1088275;54;19942;-80
2023/02/25 03:15:28;;;;;;;;;;;;;;;5.04;66.19;98856.59;1088277;54;19931;-80
2023/02/25 03:16:33;;;;;;;;;;;;;;;5.02;66.33;98855.91;1088300;54;19951;-81
2023/02/25 03:17:41;;;;;;;;;;;;;;;5.03;66.30;98856.75;1088771;46;19949;-80
2023/02/25 03:18:46;;;;;;;;;;;;;;;5.02;66.25;98860.38;1088187;54;19946;-80
2023/02/25 03:19:53;;;;;;;;;;;;;;;4.94;66.56;98859.25;1088235;54;19937;-80
2023/02/25 03:20:55;;;;;;;;;;;;;;;4.89;66.35;98861.47;1089530;46;19950;-79
2023/02/25 03:22:03;;;;;;;;;;;;;;;4.97;66.21;98855.50;1088194;54;19941;-79
2023/02/25 03:23:07;;;;;;;;;;;;;;;5.05;66.18;98860.09;1088242;54;19933;-79
2023/02/25 03:24:15;;;;;;;;;;;;;;;5.04;66.30;98851.31;1088213;54;19949;-79
2023/02/25 03:25:19;;;;;;;;;;;;;;;4.97;66.27;98852.84;1088239;54;19926;-80
2023/02/25 03:26:24;;;;;;;;;;;;;;;4.93;66.63;98856.72;1088254;54;19986;-81
2023/02/25 03:27:27;;;;;;;;;;;;;;;4.87;66.39;98858.13;1088230;54;19943;-80
2023/02/25 03:28:32;;;;;;;;;;;;;;;4.83;66.83;98859.38;1088214;54;19943;-81
2023/02/25 03:29:33;;;;;;;;;;;;;;;4.82;66.89;98858.53;1087578;54;19942;-80
2023/02/25 03:30:41;;;;;;;;;;;;;;;4.88;66.70;98853.66;1087613;54;20517;-79
2023/02/25 03:31:45;;;;;;;;;;;;;;;4.82;66.98;98855.06;1088171;54;20523;-81
2023/02/25 03:32:54;;;;;;;;;;;;;;;4.81;66.77;98843.63;1088167;54;19942;-80
2023/02/25 03:33:56;;;;;;;;;;;;;;;4.90;66.94;98846.44;1088190;54;19970;-82
2023/02/25 03:35:03;;;;;;;;;;;;;;;4.88;66.84;98849.19;1088205;54;19942;-80
2023/02/25 03:36:07;;;;;;;;;;;;;;;4.99;66.54;98842.94;1088219;54;19966;-79
2023/02/25 03:37:14;;;;;;;;;;;;;;;5.09;66.08;98840.28;1088149;54;20002;-79
2023/02/25 03:38:19;;;;;;;;;;;;;;;5.06;66.57;98841.41;1088227;54;19942;-81
2023/02/25 03:39:25;;;;;;;;;;;;;;;5.06;66.64;98845.88;1088223;54;19939;-80
2023/02/25 03:40:28;;;;;;;;;;;;;;;5.08;66.20;98844.78;1089737;46;19945;-84
2023/02/25 03:41:34;;;;;;;;;;;;;;;5.14;66.38;98849.50;1088571;54;19943;-83
2023/02/25 03:42:36;;;;;;;;;;;;;;;5.19;66.32;98845.63;1088337;54;20693;-80
2023/02/25 03:43:46;;;;;;;;;;;;;;;5.14;66.51;98854.81;1088398;54;19934;-82
2023/02/25 03:45:10;;;;;;;;;;;;;;;5.02;66.58;98847.94;1088331;54;19943;-82
2023/02/25 03:46:14;;;;;;;;;;;;;;;4.92;67.05;98850.59;1088424;54;19931;-82
2023/02/25 03:50:50;;;;;;;;;;;;;;;4.90;67.09;98864.97;1087828;54;19938;-79
2023/02/25 03:51:53;;;;;;;;;;;;;;;5.05;67.14;98866.22;1089495;46;19935;-82
2023/02/25 03:52:57;;;;;;;;;;;;;;;5.13;66.93;98863.72;1088024;54;20019;-80
2023/02/25 03:53:58;;;;;;;;;;;;;;;5.04;66.95;98863.72;1088260;54;20242;-82
2023/02/25 03:55:02;;;;;;;;;;;;;;;5.14;66.76;98862.75;1088977;46;19943;-81
2023/02/25 03:56:06;;;;;;;;;;;;;;;5.19;66.46;98858.84;1088258;54;19943;-81
2023/02/25 03:57:10;;;;;;;;;;;;;;;5.21;66.15;98860.38;1088108;54;19946;-80
2023/02/25 03:58:11;;;;;;;;;;;;;;;5.29;66.12;98868.47;1088088;54;19938;-80
2023/02/25 03:59:15;;;;;;;;;;;;;;;5.33;65.98;98863.72;1090044;46;20658;-80
2023/02/25 04:00:18;;;;;;;;;;;;;;;5.33;66.12;98863.72;1088121;54;19943;-80
2023/02/25 04:01:24;;;;;;;;;;;;;;;5.38;65.72;98869.47;1089461;46;19946;-81
2023/02/25 04:02:28;;;;;;;;;;;;;;;5.24;65.82;98875.16;1088109;54;19987;-81
2023/02/25 04:03:32;;;;;;;;;;;;;;;5.27;66.15;98869.59;1088117;54;19934;-81
2023/02/25 04:04:35;;;;;;;;;;;;;;;5.36;65.89;98875.84;1088181;54;19935;-81
2023/02/25 04:05:37;;;;;;;;;;;;;;;5.28;65.95;98876.56;1088074;54;19950;-81
2023/02/25 04:06:43;;;;;;;;;;;;;;;5.25;65.99;98879.50;1088036;54;19950;-84
2023/02/25 04:07:44;;;;;;;;;;;;;;;5.18;66.60;98878.38;1088169;54;19943;-81
2023/02/25 04:08:48;;;;;;;;;;;;;;;5.15;66.41;98876.81;1088279;46;19926;-82
2023/02/25 04:09:49;;;;;;;;;;;;;;;5.04;66.60;98871.69;1089291;46;19931;-81
2023/02/25 04:10:53;;;;;;;;;;;;;;;5.09;66.85;98877.38;1088210;54;19949;-83
2023/02/25 04:11:55;;;;;;;;;;;;;;;5.06;66.76;98888.25;1088181;54;19938;-81
2023/02/25 04:12:59;;;;;;;;;;;;;;;4.97;66.88;98881.97;1090253;46;19942;-81
2023/02/25 04:14:00;;;;;;;;;;;;;;;4.97;66.93;98881.97;1088200;54;19945;-80
2023/02/25 04:15:04;;;;;;;;;;;;;;;5.03;67.03;98884.06;1088126;54;19927;-80
2023/02/25 04:16:07;;;;;;;;;;;;;;;4.94;67.22;98884.88;1088179;54;19950;-82
2023/02/25 04:17:11;;;;;;;;;;;;;;;4.94;67.41;98882.25;1088067;54;20471;-83
2023/02/25 04:18:13;;;;;;;;;;;;;;;5.03;67.33;98883.25;1088157;54;19949;-80
2023/02/25 04:19:17;;;;;;;;;;;;;;;4.92;67.16;98874.44;1088168;54;19943;-79
2023/02/25 04:20:18;;;;;;;;;;;;;;;4.95;67.07;98886.56;1088494;46;19942;-81
2023/02/25 04:21:28;;;;;;;;;;;;;;;4.88;67.40;98885.44;1088071;54;19989;-80
2023/02/25 04:22:32;;;;;;;;;;;;;;;5.02;67.22;98882.38;1088145;54;19942;-79
2023/02/25 04:23:36;;;;;;;;;;;;;;;4.92;66.73;98886.84;1088036;54;19974;-80
2023/02/25 04:24:37;;;;;;;;;;;;;;;4.98;66.63;98875.72;1088092;54;19939;-80
2023/02/25 04:25:42;;;;;;;;;;;;;;;5.09;66.69;98882.69;1088062;54;19959;-81
2023/02/25 04:26:43;;;;;;;;;;;;;;;5.02;66.49;98886.88;1088263;54;20421;-81
2023/02/25 04:27:46;;;;;;;;;;;;;;;5.05;66.20;98890.06;1088794;46;20685;-80
2023/02/25 04:28:48;;;;;;;;;;;;;;;5.15;66.13;98890.06;1088095;54;19923;-80
2023/02/25 04:29:51;;;;;;;;;;;;;;;5.08;65.82;98888.94;1088120;54;19943;-82
2023/02/25 04:30:53;;;;;;;;;;;;;;;5.10;65.91;98885.19;1088030;54;19946;-81
2023/02/25 04:31:56;;;;;;;;;;;;;;;5.19;65.75;98885.34;1089675;46;19946;-81
2023/02/25 04:32:57;;;;;;;;;;;;;;;4.99;65.53;98885.34;1088180;54;19938;-81
2023/02/25 04:34:01;;;;;;;;;;;;;;;4.92;65.91;98889.47;1088451;46;19923;-82
2023/02/25 04:35:02;;;;;;;;;;;;;;;4.91;65.74;98906.38;1088277;54;19927;-83
2023/02/25 04:36:06;;;;;;;;;;;;;;;4.93;65.68;98904.41;1088392;54;19943;-82
2023/02/25 04:37:08;;;;;;;;;;;;;;;4.90;65.51;98896.75;1088236;54;19942;-82
2023/02/25 04:38:15;;;;;;;;;;;;;;;4.95;65.60;98902.47;1088340;54;19981;-82
2023/02/25 04:39:17;;;;;;;;;;;;;;;4.94;65.49;98906.09;1090274;46;19938;-80
2023/02/25 04:40:21;;;;;;;;;;;;;;;4.89;65.72;98903.84;1088284;54;19991;-81
2023/02/25 04:41:23;;;;;;;;;;;;;;;4.90;65.83;98910.81;1089278;46;19930;-80
2023/02/25 04:42:26;;;;;;;;;;;;;;;4.92;65.47;98902.72;1088072;54;19973;-79
2023/02/25 04:43:27;;;;;;;;;;;;;;;4.93;65.42;98899.09;1088206;54;19938;-80
2023/02/25 04:44:31;;;;;;;;;;;;;;;4.82;65.62;98900.06;1088122;54;19950;-81
2023/02/25 04:45:32;;;;;;;;;;;;;;;4.99;65.60;98901.22;1089822;46;19923;-81
2023/02/25 04:46:36;;;;;;;;;;;;;;;5.02;64.93;98895.63;1088092;54;19954;-80
2023/02/25 04:47:38;;;;;;;;;;;;;;;4.93;64.74;98899.09;1088856;46;19939;-80
2023/02/25 04:48:42;;;;;;;;;;;;;;;4.90;64.68;98902.88;1088886;46;19943;-80
2023/02/25 04:49:43;;;;;;;;;;;;;;;4.92;65.09;98902.72;1088694;46;19987;-81
2023/02/25 04:50:47;;;;;;;;;;;;;;;5.01;65.10;98907.19;1089322;46;19927;-80
2023/02/25 04:51:50;;;;;;;;;;;;;;;5.00;64.31;98902.91;1088100;54;19966;-80
2023/02/25 04:52:53;;;;;;;;;;;;;;;4.94;64.49;98909.59;1088845;46;19934;-80
2023/02/25 04:53:57;;;;;;;;;;;;;;;4.85;64.67;98902.47;1088082;54;19922;-79
2023/02/25 04:55:01;;;;;;;;;;;;;;;4.87;64.82;98912.91;1093048;39;20197;-80
2023/02/25 04:56:02;;;;;;;;;;;;;;;4.88;64.92;98906.63;1088142;54;19949;-80
2023/02/25 04:57:06;;;;;;;;;;;;;;;4.83;64.83;98910.50;1087984;54;19939;-80
2023/02/25 04:58:07;;;;;;;;;;;;;;;4.84;64.93;98904.25;1088103;54;19927;-81
2023/02/25 04:59:12;;;;;;;;;;;;;;;4.88;64.76;98899.50;1090452;46;19942;-81
2023/02/25 05:00:17;;;;;;;;;;;;;;;4.81;64.83;98893.94;1088155;54;19938;-81
2023/02/25 05:01:21;;;;;;;;;;;;;;;4.76;64.75;98901.44;1089966;46;19942;-81
2023/02/25 05:02:22;;;;;;;;;;;;;;;4.83;64.67;98897.28;1089739;46;19938;-84
2023/02/25 05:03:27;;;;;;;;;;;;;;;4.75;65.17;98896.28;1088080;54;19942;-82
2023/02/25 05:04:28;;;;;;;;;;;;;;;4.75;65.17;98896.28;1088094;54;19942;-82
2023/02/25 05:05:31;;;;;;;;;;;;;;;4.85;64.97;98902.47;1088000;54;19949;-83
2023/02/25 05:06:33;;;;;;;;;;;;;;;4.79;64.75;98892.38;1088061;54;19938;-79
2023/02/25 05:07:37;;;;;;;;;;;;;;;4.78;64.96;98898.66;1091187;46;19998;-80
2023/02/25 05:08:38;;;;;;;;;;;;;;;4.78;64.73;98899.50;1088085;54;20062;-80
2023/02/25 05:09:45;;;;;;;;;;;;;;;4.86;64.70;98908.56;1088087;54;19934;-80
2023/02/25 05:10:46;;;;;;;;;;;;;;;4.73;64.70;98908.81;1089402;46;19998;-81
2023/02/25 05:11:50;;;;;;;;;;;;;;;4.84;64.60;98904.25;1088759;46;19927;-81
2023/02/25 05:12:51;;;;;;;;;;;;;;;4.82;64.10;98903.53;1089526;46;20030;-80
2023/02/25 05:13:56;;;;;;;;;;;;;;;4.91;63.97;98903.72;1088285;46;20023;-80
2023/02/25 05:14:57;;;;;;;;;;;;;;;4.92;64.12;98908.88;1089586;47;19965;-80
2023/02/25 05:16:07;;;;;;;;;;;;;;;4.87;64.25;98900.47;1088104;54;19942;-80
2023/02/25 05:17:08;;;;;;;;;;;;;;;5.00;63.62;98900.25;1088505;47;19938;-79
2023/02/25 05:18:12;;;;;;;;;;;;;;;4.94;63.59;98901.63;1088133;47;19935;-81
2023/02/25 05:19:17;;;;;;;;;;;;;;;4.82;63.32;98903.53;1088086;54;19942;-82
2023/02/25 05:20:21;;;;;;;;;;;;;;;4.67;63.85;98902.25;1089028;46;20010;-83
2023/02/25 05:21:24;;;;;;;;;;;;;;;4.66;64.22;98904.09;1088745;46;20006;-81
2023/02/25 05:22:28;;;;;;;;;;;;;;;4.57;64.28;98904.03;1088095;54;19939;-82
2023/02/25 05:23:29;;;;;;;;;;;;;;;4.50;64.61;98915.16;1088097;47;19950;-81
2023/02/25 05:24:33;;;;;;;;;;;;;;;4.62;64.12;98910.59;1088050;54;19930;-80
2023/02/25 05:25:40;;;;;;;;;;;;;;;4.59;64.19;98907.38;1088580;47;19951;-81
2023/02/25 05:26:44;;;;;;;;;;;;;;;4.61;63.99;98908.09;1091480;46;19935;-81
2023/02/25 05:27:45;;;;;;;;;;;;;;;4.73;63.96;98909.66;1088042;54;19943;-81
2023/02/25 05:28:49;;;;;;;;;;;;;;;4.62;63.65;98909.78;1088081;54;19934;-81
2023/02/25 05:29:50;;;;;;;;;;;;;;;4.69;63.41;98908.25;1088311;54;19950;-82
2023/02/25 05:30:55;;;;;;;;;;;;;;;4.59;63.43;98910.03;1088033;54;19942;-82
2023/02/25 05:31:56;;;;;;;;;;;;;;;4.75;63.67;98899.78;1088621;47;19939;-80
2023/02/25 05:33:00;;;;;;;;;;;;;;;4.73;63.12;98899.06;1088337;54;19933;-82
2023/02/25 05:34:02;;;;;;;;;;;;;;;4.76;63.08;98898.81;1088305;54;19965;-82
2023/02/25 05:35:07;;;;;;;;;;;;;;;4.91;62.90;98893.94;1088168;54;19994;-81
2023/02/25 05:36:10;;;;;;;;;;;;;;;4.97;62.47;98893.41;1088150;54;19974;-81
2023/02/25 05:37:14;;;;;;;;;;;;;;;4.95;62.28;98891.88;1088245;54;19985;-83
2023/02/25 05:38:15;;;;;;;;;;;;;;;5.00;62.35;98894.97;1088159;54;19939;-81
2023/02/25 05:39:19;;;;;;;;;;;;;;;5.03;62.45;98892.00;1089395;47;19927;-81
2023/02/25 05:40:20;;;;;;;;;;;;;;;5.14;62.15;98885.78;1088216;54;19927;-83
2023/02/25 05:41:26;;;;;;;;;;;;;;;5.10;61.82;98893.13;1088237;54;19942;-82
2023/02/25 05:42:27;;;;;;;;;;;;;;;5.09;62.08;98893.28;1088125;54;19941;-82
2023/02/25 05:43:31;;;;;;;;;;;;;;;5.10;61.67;98889.66;1088412;47;19938;-81
2023/02/25 05:44:32;;;;;;;;;;;;;;;5.15;62.11;98885.63;1089130;47;19961;-80
2023/02/25 05:45:36;;;;;;;;;;;;;;;5.22;61.82;98887.72;1088010;54;19942;-82
2023/02/25 05:46:37;;;;;;;;;;;;;;;5.29;61.79;98883.53;1088050;54;19946;-81
2023/02/25 05:47:41;;;;;;;;;;;;;;;5.13;61.58;98884.09;1087901;54;19943;-82
2023/02/25 05:48:44;;;;;;;;;;;;;;;5.03;61.88;98889.38;1087853;54;19939;-80
2023/02/25 05:49:48;;;;;;;;;;;;;;;5.12;61.83;98885.88;1087823;54;19942;-81
2023/02/25 05:50:50;;;;;;;;;;;;;;;5.18;61.51;98892.44;1088001;54;19938;-81
2023/02/25 05:51:53;;;;;;;;;;;;;;;5.15;61.50;98893.56;1088422;47;19934;-82
2023/02/25 05:52:54;;;;;;;;;;;;;;;4.97;61.62;98892.56;1088024;54;19946;-81
2023/02/25 05:53:59;;;;;;;;;;;;;;;4.92;61.75;98892.97;1089688;47;19977;-82
2023/02/25 05:55:00;;;;;;;;;;;;;;;5.02;61.72;98894.81;1087954;54;20053;-83
2023/02/25 05:56:05;;;;;;;;;;;;;;;5.14;61.86;98885.78;1089341;47;19939;-82
2023/02/25 05:57:09;;;;;;;;;;;;;;;5.10;61.42;98895.78;1088197;47;19939;-83
2023/02/25 05:58:13;;;;;;;;;;;;;;;4.95;61.44;98886.56;1088893;47;19942;-84
2023/02/25 05:59:16;;;;;;;;;;;;;;;5.02;61.47;98890.34;1088139;54;19946;-81
2023/02/25 06:00:21;;;;;;;;;;;;;;;5.02;61.48;98886.88;1088144;54;19943;-83
2023/02/25 06:01:23;;;;;;;;;;;;;;;5.08;61.67;98889.81;1088117;54;19946;-82
2023/02/25 06:02:27;;;;;;;;;;;;;;;5.19;61.41;98886.19;1088060;54;19935;-83
2023/02/25 06:03:28;;;;;;;;;;;;;;;5.25;61.34;98887.44;1088179;54;19949;-82
2023/02/25 06:04:32;;;;;;;;;;;;;;;5.28;61.09;98885.34;1088513;47;19942;-83
2023/02/25 06:05:33;;;;;;;;;;;;;;;5.30;61.03;98895.78;1088133;54;19931;-82
2023/02/25 06:06:37;;;;;;;;;;;;;;;5.32;60.68;98888.56;1090075;47;19943;-83
2023/02/25 06:07:38;;;;;;;;;;;;;;;5.32;60.63;98885.91;1088943;47;19946;-83
2023/02/25 06:08:43;;;;;;;;;;;;;;;5.30;60.39;98895.78;1088464;47;19950;-85
2023/02/25 06:09:44;;;;;;;;;;;;;;;5.35;60.81;98892.72;1089738;47;19942;-82